Time;durP1;ratioP1;P1;durP2;ratioP2;P2;SDS_P1;SDS_P2;PMS_P1;PMS_P2;Temp;Humidity;BMP_temperature;BMP_pressure;BME280_temperature;BME280_humidity;BME280_pressure;Samples;Min_cycle;Max_cycle;Signal;HPM_P1;HPM_P2
2021/07/01 00:01:09;;;;;;;1.63;0.80;;;;;;;;;;5011670;28;20632;-70
2021/07/01 00:03:35;;;;;;;1.77;0.80;;;;;;;;;;5012359;28;20421;-69
2021/07/01 00:06:01;;;;;;;1.20;1.07;;;;;;;;;;5026455;28;20421;-70
2021/07/01 00:08:27;;;;;;;1.33;0.97;;;;;;;;;;5027158;28;20788;-70
2021/07/01 00:10:53;;;;;;;0.80;0.80;;;;;;;;;;5011429;28;20499;-69
2021/07/01 00:13:19;;;;;;;0.80;0.70;;;;;;;;;;5011723;28;20744;-70
2021/07/01 00:15:45;;;;;;;0.80;0.80;;;;;;;;;;5011588;28;20477;-70
2021/07/01 00:18:11;;;;;;;1.70;1.00;;;;;;;;;;5011902;28;20630;-69
2021/07/01 00:20:37;;;;;;;1.47;1.10;;;;;;;;;;5011815;28;20791;-70
2021/07/01 00:23:03;;;;;;;0.93;0.83;;;;;;;;;;5011726;28;20413;-70
2021/07/01 00:25:29;;;;;;;3.00;1.00;;;;;;;;;;5011330;28;20425;-70
2021/07/01 00:27:55;;;;;;;1.40;1.30;;;;;;;;;;5011448;28;20922;-69
2021/07/01 00:30:22;;;;;;;1.30;0.70;;;;;;;;;;5011504;28;20412;-70
2021/07/01 00:32:48;;;;;;;0.80;0.60;;;;;;;;;;5011585;28;20519;-70
2021/07/01 00:35:14;;;;;;;0.83;0.80;;;;;;;;;;5042525;28;20491;-70
2021/07/01 00:37:40;;;;;;;1.63;0.83;;;;;;;;;;5012460;28;20428;-70
2021/07/01 00:40:10;;;;;;;2.30;0.87;;;;;;;;;;5026666;28;20774;-70
2021/07/01 00:42:36;;;;;;;0.93;0.67;;;;;;;;;;5011649;28;20416;-70
2021/07/01 00:45:03;;;;;;;0.80;0.80;;;;;;;;;;5011210;28;20479;-69
2021/07/01 00:47:29;;;;;;;6.00;0.90;;;;;;;;;;4993636;28;20495;-71
2021/07/01 00:49:55;;;;;;;0.63;0.63;;;;;;;;;;5010773;28;20896;-70
2021/07/01 00:52:21;;;;;;;0.70;0.60;;;;;;;;;;5011320;28;20443;-69
2021/07/01 00:54:47;;;;;;;0.73;0.73;;;;;;;;;;5020151;28;20958;-70
2021/07/01 00:57:13;;;;;;;0.70;0.70;;;;;;;;;;5030924;28;20420;-72
2021/07/01 00:59:40;;;;;;;1.90;0.90;;;;;;;;;;5030719;28;20853;-70
2021/07/01 01:02:06;;;;;;;0.93;0.60;;;;;;;;;;5031054;28;20444;-70
2021/07/01 01:04:33;;;;;;;1.00;0.80;;;;;;;;;;5030493;28;20431;-69
2021/07/01 01:06:59;;;;;;;0.73;0.50;;;;;;;;;;5030832;28;20416;-70
2021/07/01 01:09:25;;;;;;;0.70;0.70;;;;;;;;;;5029529;28;20522;-69
2021/07/01 01:11:51;;;;;;;1.00;0.80;;;;;;;;;;5028809;28;20530;-70
2021/07/01 01:14:17;;;;;;;1.43;0.80;;;;;;;;;;5030849;28;20561;-69
2021/07/01 01:16:43;;;;;;;4.20;0.80;;;;;;;;;;5027075;28;20507;-70
2021/07/01 01:19:09;;;;;;;0.80;0.80;;;;;;;;;;5011276;28;20523;-69
2021/07/01 01:21:36;;;;;;;0.60;0.60;;;;;;;;;;5011977;28;20447;-69
2021/07/01 01:24:04;;;;;;;0.57;0.57;;;;;;;;;;5015082;28;20590;-69
2021/07/01 01:26:30;;;;;;;1.20;0.90;;;;;;;;;;5014815;28;20431;-71
2021/07/01 01:28:56;;;;;;;1.10;0.70;;;;;;;;;;5015134;28;20836;-69
2021/07/01 01:31:22;;;;;;;0.60;0.60;;;;;;;;;;5014582;28;20440;-70
2021/07/01 01:33:52;;;;;;;0.63;0.63;;;;;;;;;;5014382;28;20906;-70
2021/07/01 01:36:18;;;;;;;0.60;0.50;;;;;;;;;;5014011;28;20792;-70
2021/07/01 01:38:44;;;;;;;2.00;0.87;;;;;;;;;;5014741;28;20419;-70
2021/07/01 01:41:10;;;;;;;0.63;0.57;;;;;;;;;;5014299;28;20433;-70
2021/07/01 01:43:36;;;;;;;0.77;0.77;;;;;;;;;;5046163;28;20874;-69
2021/07/01 01:46:02;;;;;;;2.00;0.50;;;;;;;;;;5014719;28;20475;-69
2021/07/01 01:48:28;;;;;;;0.70;0.70;;;;;;;;;;5014291;28;20413;-69
2021/07/01 01:50:54;;;;;;;0.83;0.80;;;;;;;;;;5014033;28;20421;-70
2021/07/01 01:53:20;;;;;;;1.07;0.80;;;;;;;;;;5014135;28;20491;-69
2021/07/01 01:55:46;;;;;;;0.80;0.80;;;;;;;;;;5029187;28;20519;-70
2021/07/01 01:58:15;;;;;;;0.83;0.50;;;;;;;;;;5014079;28;20524;-69
2021/07/01 02:00:41;;;;;;;0.80;0.70;;;;;;;;;;5013860;28;20439;-70
2021/07/01 02:03:07;;;;;;;5.57;0.60;;;;;;;;;;5014344;28;20439;-69
2021/07/01 02:05:33;;;;;;;0.90;0.77;;;;;;;;;;5013034;28;20508;-70
2021/07/01 02:07:59;;;;;;;0.60;0.60;;;;;;;;;;5013742;28;20420;-70
2021/07/01 02:10:26;;;;;;;0.67;0.43;;;;;;;;;;5013699;28;20460;-71
2021/07/01 02:12:52;;;;;;;1.53;0.80;;;;;;;;;;5013908;28;20417;-69
2021/07/01 02:15:20;;;;;;;0.97;0.63;;;;;;;;;;5028457;28;20499;-70
2021/07/01 02:17:47;;;;;;;0.63;0.63;;;;;;;;;;5013993;28;20427;-70
2021/07/01 02:20:14;;;;;;;0.93;0.60;;;;;;;;;;5038771;28;20502;-69
2021/07/01 02:22:40;;;;;;;0.60;0.60;;;;;;;;;;5013445;28;20417;-70
2021/07/01 02:25:07;;;;;;;0.80;0.73;;;;;;;;;;5013562;28;20520;-69
2021/07/01 02:27:34;;;;;;;0.57;0.57;;;;;;;;;;5013328;28;20882;-69
2021/07/01 02:30:00;;;;;;;2.73;0.70;;;;;;;;;;5013269;28;20536;-71
2021/07/01 02:32:26;;;;;;;2.57;0.80;;;;;;;;;;5012957;28;20435;-70
2021/07/01 02:34:53;;;;;;;0.60;0.60;;;;;;;;;;5044384;28;20980;-70
2021/07/01 02:37:19;;;;;;;1.30;0.87;;;;;;;;;;5046159;28;20476;-69
2021/07/01 02:39:46;;;;;;;0.80;0.60;;;;;;;;;;5028620;28;21001;-69
2021/07/01 02:42:12;;;;;;;0.60;0.60;;;;;;;;;;5013121;28;20932;-70
2021/07/01 02:44:38;;;;;;;1.40;0.53;;;;;;;;;;5013028;28;20700;-70
2021/07/01 02:47:05;;;;;;;0.83;0.80;;;;;;;;;;5013372;28;20533;-69
2021/07/01 02:49:31;;;;;;;0.80;0.60;;;;;;;;;;5013186;28;20801;-70
2021/07/01 02:51:57;;;;;;;1.23;0.80;;;;;;;;;;5012847;28;20431;-70
2021/07/01 02:54:23;;;;;;;0.90;0.70;;;;;;;;;;5026614;28;20479;-70
2021/07/01 02:56:49;;;;;;;1.40;0.80;;;;;;;;;;5032747;28;20427;-69
2021/07/01 02:59:16;;;;;;;0.80;0.70;;;;;;;;;;5031692;28;20432;-70
2021/07/01 03:01:43;;;;;;;0.60;0.60;;;;;;;;;;5032894;28;20423;-69
2021/07/01 03:04:09;;;;;;;1.33;1.10;;;;;;;;;;5031566;28;20440;-70
2021/07/01 03:06:35;;;;;;;1.13;1.03;;;;;;;;;;5031928;28;20566;-72
2021/07/01 03:09:01;;;;;;;1.03;0.80;;;;;;;;;;5032635;28;20520;-71
2021/07/01 03:11:27;;;;;;;0.70;0.70;;;;;;;;;;5031525;28;20432;-69
2021/07/01 03:13:54;;;;;;;0.60;0.57;;;;;;;;;;5031018;28;20447;-70
2021/07/01 03:16:20;;;;;;;1.10;0.90;;;;;;;;;;5031869;28;20431;-69
2021/07/01 03:18:50;;;;;;;2.30;0.67;;;;;;;;;;5011447;28;20463;-69
2021/07/01 03:21:16;;;;;;;2.10;0.90;;;;;;;;;;5010835;28;20926;-69
2021/07/01 03:23:43;;;;;;;1.13;0.87;;;;;;;;;;5011245;28;20420;-70
2021/07/01 03:26:09;;;;;;;1.57;0.60;;;;;;;;;;5012408;28;20475;-71
2021/07/01 03:28:36;;;;;;;0.80;0.80;;;;;;;;;;5013002;28;20454;-70
2021/07/01 03:31:03;;;;;;;1.87;0.80;;;;;;;;;;5011868;28;20458;-70
2021/07/01 03:33:29;;;;;;;0.80;0.70;;;;;;;;;;5012280;28;20428;-71
2021/07/01 03:35:55;;;;;;;1.53;0.90;;;;;;;;;;5011117;28;20987;-70
2021/07/01 03:38:21;;;;;;;0.70;0.70;;;;;;;;;;5012279;28;20423;-70
2021/07/01 03:40:47;;;;;;;1.47;0.80;;;;;;;;;;5012082;28;20440;-70
2021/07/01 03:43:13;;;;;;;1.33;1.23;;;;;;;;;;5043613;28;20950;-69
2021/07/01 03:45:40;;;;;;;1.47;1.37;;;;;;;;;;5012017;28;20539;-71
2021/07/01 03:48:06;;;;;;;1.20;1.10;;;;;;;;;;5011445;28;20409;-71
2021/07/01 03:50:32;;;;;;;2.20;0.70;;;;;;;;;;5025028;28;20873;-70
2021/07/01 03:52:58;;;;;;;3.83;1.10;;;;;;;;;;5031473;28;20470;-70
2021/07/01 03:55:24;;;;;;;2.63;1.20;;;;;;;;;;5031134;28;20475;-70
2021/07/01 03:57:50;;;;;;;1.03;0.93;;;;;;;;;;5031484;28;20424;-69
2021/07/01 04:00:16;;;;;;;0.80;0.80;;;;;;;;;;5030178;28;20440;-70
2021/07/01 04:02:42;;;;;;;1.23;0.97;;;;;;;;;;5011975;28;20448;-70
2021/07/01 04:05:08;;;;;;;1.33;1.23;;;;;;;;;;5011048;28;20429;-71
2021/07/01 04:07:35;;;;;;;1.33;0.90;;;;;;;;;;5017962;28;20506;-71
2021/07/01 04:10:06;;;;;;;1.03;0.80;;;;;;;;;;5031492;28;20431;-69
2021/07/01 04:12:32;;;;;;;1.40;0.90;;;;;;;;;;5031324;28;20566;-69
2021/07/01 04:14:58;;;;;;;1.17;0.97;;;;;;;;;;5030986;28;20473;-70
2021/07/01 04:17:24;;;;;;;1.47;1.37;;;;;;;;;;5031234;28;20490;-70
2021/07/01 04:19:50;;;;;;;1.33;1.10;;;;;;;;;;5011513;28;20444;-70
2021/07/01 04:22:16;;;;;;;1.37;1.27;;;;;;;;;;5011669;28;20420;-71
2021/07/01 04:24:42;;;;;;;1.10;1.00;;;;;;;;;;5011283;28;20416;-69
2021/07/01 04:27:08;;;;;;;1.13;1.03;;;;;;;;;;5011783;28;20787;-70
2021/07/01 04:29:35;;;;;;;1.87;1.00;;;;;;;;;;5011005;28;20531;-70
2021/07/01 04:32:01;;;;;;;1.60;1.30;;;;;;;;;;5011430;28;20516;-70
2021/07/01 04:34:27;;;;;;;1.80;1.53;;;;;;;;;;5011311;28;20986;-71
2021/07/01 04:36:53;;;;;;;1.57;1.47;;;;;;;;;;5030107;28;20952;-70
2021/07/01 04:39:19;;;;;;;2.27;1.67;;;;;;;;;;5026621;28;20760;-72
2021/07/01 04:41:45;;;;;;;1.70;1.60;;;;;;;;;;5011198;28;20543;-71
2021/07/01 04:44:11;;;;;;;2.07;1.90;;;;;;;;;;5011289;28;20494;-70
2021/07/01 04:46:37;;;;;;;2.37;1.90;;;;;;;;;;5011268;28;20415;-69
2021/07/01 04:49:03;;;;;;;2.60;2.10;;;;;;;;;;5011391;28;20503;-72
2021/07/01 04:51:29;;;;;;;1.70;1.60;;;;;;;;;;5010770;28;20420;-70
2021/07/01 04:53:55;;;;;;;1.53;1.43;;;;;;;;;;5022971;28;20799;-71
2021/07/01 04:56:21;;;;;;;1.73;1.63;;;;;;;;;;5011270;28;20472;-70
2021/07/01 04:58:47;;;;;;;2.00;1.80;;;;;;;;;;5015522;28;20417;-70
2021/07/01 05:01:13;;;;;;;3.10;1.50;;;;;;;;;;5014935;28;20428;-71
2021/07/01 05:03:39;;;;;;;3.20;2.07;;;;;;;;;;5015506;28;20558;-68
2021/07/01 05:06:05;;;;;;;1.57;1.40;;;;;;;;;;5046234;28;20428;-71
2021/07/01 05:08:31;;;;;;;1.50;1.40;;;;;;;;;;5015353;28;20424;-70
2021/07/01 05:10:57;;;;;;;1.40;1.30;;;;;;;;;;5013814;28;20502;-70
2021/07/01 05:13:23;;;;;;;2.50;1.43;;;;;;;;;;5014941;28;20428;-70
2021/07/01 05:15:49;;;;;;;1.87;1.33;;;;;;;;;;5030243;28;20551;-68
2021/07/01 05:18:16;;;;;;;1.53;1.43;;;;;;;;;;5015285;28;20460;-70
2021/07/01 05:20:43;;;;;;;1.43;1.33;;;;;;;;;;5029903;28;20547;-69
2021/07/01 05:23:09;;;;;;;1.43;1.30;;;;;;;;;;5030310;28;20899;-71
2021/07/01 05:25:35;;;;;;;1.57;1.47;;;;;;;;;;5015236;28;20428;-72
2021/07/01 05:28:08;;;;;;;3.17;1.57;;;;;;;;;;5014709;28;20775;-73
2021/07/01 05:30:34;;;;;;;1.90;1.37;;;;;;;;;;5014823;28;20424;-71
2021/07/01 05:33:00;;;;;;;2.30;1.40;;;;;;;;;;5029844;28;20444;-70
2021/07/01 05:35:27;;;;;;;1.80;1.57;;;;;;;;;;5028716;28;20530;-71
2021/07/01 05:37:53;;;;;;;2.30;1.90;;;;;;;;;;5014452;28;20420;-71
2021/07/01 05:40:21;;;;;;;1.83;1.73;;;;;;;;;;5014514;28;20443;-72
2021/07/01 05:42:47;;;;;;;1.73;1.40;;;;;;;;;;5045959;28;20435;-71
2021/07/01 05:45:14;;;;;;;2.47;1.40;;;;;;;;;;5014339;28;20417;-72
2021/07/01 05:47:41;;;;;;;1.40;1.30;;;;;;;;;;5030081;28;20515;-70
2021/07/01 05:50:08;;;;;;;1.73;1.63;;;;;;;;;;5029332;28;20429;-69
2021/07/01 05:52:35;;;;;;;1.80;1.70;;;;;;;;;;5029643;28;20429;-71
2021/07/01 05:55:02;;;;;;;1.43;1.30;;;;;;;;;;5014428;28;20467;-71
2021/07/01 05:57:28;;;;;;;1.63;1.20;;;;;;;;;;5014411;28;20425;-70
2021/07/01 05:59:55;;;;;;;6.33;1.30;;;;;;;;;;5014989;28;20738;-72
2021/07/01 06:02:21;;;;;;;1.50;1.40;;;;;;;;;;5014461;28;20440;-74
2021/07/01 06:04:48;;;;;;;1.20;1.10;;;;;;;;;;5028584;28;20424;-73
2021/07/01 06:07:18;;;;;;;1.23;0.87;;;;;;;;;;5013625;28;20413;-69
2021/07/01 06:09:46;;;;;;;1.10;1.00;;;;;;;;;;5014006;28;20417;-69
2021/07/01 06:12:12;;;;;;;1.03;0.97;;;;;;;;;;5013841;28;20512;-71
2021/07/01 06:14:39;;;;;;;1.20;1.10;;;;;;;;;;5013781;28;20583;-70
2021/07/01 06:17:05;;;;;;;2.77;1.20;;;;;;;;;;5014467;28;20459;-71
2021/07/01 06:19:31;;;;;;;1.00;0.90;;;;;;;;;;5013599;28;20429;-73
2021/07/01 06:21:57;;;;;;;1.80;1.27;;;;;;;;;;5013649;28;20413;-72
2021/07/01 06:24:23;;;;;;;1.03;1.00;;;;;;;;;;5013919;28;20569;-74
2021/07/01 06:26:49;;;;;;;1.37;1.27;;;;;;;;;;5028836;28;20920;-70
2021/07/01 06:29:16;;;;;;;2.50;0.87;;;;;;;;;;5028922;28;20437;-71
2021/07/01 06:31:43;;;;;;;1.47;1.37;;;;;;;;;;5013248;28;20424;-69
2021/07/01 06:34:09;;;;;;;6.07;1.07;;;;;;;;;;5014187;28;20955;-71
2021/07/01 06:36:36;;;;;;;1.23;1.07;;;;;;;;;;5013100;28;20456;-70
2021/07/01 06:39:04;;;;;;;2.87;1.20;;;;;;;;;;5019799;28;20427;-71
2021/07/01 06:41:32;;;;;;;1.60;1.43;;;;;;;;;;5033851;28;20444;-73
2021/07/01 06:43:58;;;;;;;1.80;1.40;;;;;;;;;;5033458;28;20541;-69
2021/07/01 06:46:30;;;;;;;2.17;1.43;;;;;;;;;;5033409;28;20413;-73
2021/07/01 06:48:56;;;;;;;2.97;2.07;;;;;;;;;;5032149;28;20950;-70
2021/07/01 06:51:22;;;;;;;7.53;1.67;;;;;;;;;;5030655;28;20961;-72
2021/07/01 06:53:48;;;;;;;1.53;1.43;;;;;;;;;;5031935;28;20887;-72
2021/07/01 06:56:14;;;;;;;2.03;1.60;;;;;;;;;;5033014;28;20531;-71
2021/07/01 06:58:41;;;;;;;2.03;1.10;;;;;;;;;;5033023;28;20474;-71
2021/07/01 07:01:07;;;;;;;1.83;1.30;;;;;;;;;;5031624;28;20491;-72
2021/07/01 07:03:34;;;;;;;1.40;1.30;;;;;;;;;;5032945;28;20848;-71
2021/07/01 07:06:03;;;;;;;1.67;1.57;;;;;;;;;;5029704;28;20408;-70
2021/07/01 07:08:29;;;;;;;1.73;1.63;;;;;;;;;;5019506;28;20459;-72
2021/07/01 07:10:55;;;;;;;2.67;1.97;;;;;;;;;;5033236;28;20822;-71
2021/07/01 07:13:25;;;;;;;2.83;2.00;;;;;;;;;;5032533;28;20427;-71
2021/07/01 07:15:52;;;;;;;2.53;1.70;;;;;;;;;;5032569;28;20471;-71
2021/07/01 07:18:18;;;;;;;2.50;1.93;;;;;;;;;;5032070;28;20420;-70
2021/07/01 07:20:45;;;;;;;1.63;1.53;;;;;;;;;;5024041;28;20922;-71
2021/07/01 07:23:16;;;;;;;2.73;1.70;;;;;;;;;;5020769;28;20903;-71
2021/07/01 07:25:42;;;;;;;2.40;1.63;;;;;;;;;;5022983;28;20517;-69
2021/07/01 07:28:09;;;;;;;2.37;1.50;;;;;;;;;;5012925;28;20879;-71
2021/07/01 07:30:35;;;;;;;2.43;2.10;;;;;;;;;;5014987;28;20429;-70
2021/07/01 07:33:08;;;;;;;2.00;1.90;;;;;;;;;;5011666;28;20950;-71
2021/07/01 07:35:35;;;;;;;2.30;1.73;;;;;;;;;;5010556;28;20621;-70
2021/07/01 07:38:01;;;;;;;2.47;1.77;;;;;;;;;;5013742;28;20429;-72
2021/07/01 07:40:28;;;;;;;2.93;2.07;;;;;;;;;;5011185;28;20724;-71
2021/07/01 07:42:54;;;;;;;5.93;2.60;;;;;;;;;;5015291;28;20432;-70
2021/07/01 07:45:20;;;;;;;2.20;2.00;;;;;;;;;;5025049;28;20440;-71
2021/07/01 07:47:46;;;;;;;2.67;2.23;;;;;;;;;;5032187;28;20444;-69
2021/07/01 07:50:13;;;;;;;3.13;2.30;;;;;;;;;;5011507;28;20432;-70
2021/07/01 07:52:44;;;;;;;2.97;2.07;;;;;;;;;;5019379;28;20907;-69
2021/07/01 07:55:10;;;;;;;2.73;2.20;;;;;;;;;;5040245;28;20897;-71
2021/07/01 07:57:38;;;;;;;2.20;2.00;;;;;;;;;;5031823;28;20507;-70
2021/07/01 08:00:05;;;;;;;2.20;2.00;;;;;;;;;;5019240;28;20416;-70
2021/07/01 08:02:50;;;;;;;1.77;1.67;;;;;;;;;;5011808;28;20782;-81
2021/07/01 08:05:19;;;;;;;2.23;1.50;;;;;;;;;;5020076;28;20419;-82
2021/07/01 08:07:46;;;;;;;3.20;2.43;;;;;;;;;;5021631;28;20451;-81
2021/07/01 08:10:15;;;;;;;3.60;2.10;;;;;;;;;;5026019;28;20850;-80
2021/07/01 08:12:43;;;;;;;2.80;2.20;;;;;;;;;;5022665;28;20429;-78
2021/07/01 08:15:11;;;;;;;2.50;2.30;;;;;;;;;;5026610;28;20483;-80
2021/07/01 08:17:37;;;;;;;2.37;2.10;;;;;;;;;;5018012;28;20433;-75
2021/07/01 08:20:03;;;;;;;1.60;1.50;;;;;;;;;;5011738;28;20942;-81
2021/07/01 08:22:29;;;;;;;2.27;2.07;;;;;;;;;;5015022;28;20467;-82
2021/07/01 08:24:55;;;;;;;2.63;2.27;;;;;;;;;;5013456;28;20476;-73
2021/07/01 08:27:21;;;;;;;2.50;2.30;;;;;;;;;;5016338;28;20886;-76
2021/07/01 08:29:48;;;;;;;3.50;2.00;;;;;;;;;;5014697;28;20436;-78
2021/07/01 08:32:16;;;;;;;2.63;2.43;;;;;;;;;;5023110;28;20420;-78
2021/07/01 08:34:44;;;;;;;3.27;2.37;;;;;;;;;;5011005;28;20502;-79
2021/07/01 08:37:10;;;;;;;2.50;1.80;;;;;;;;;;5018942;28;20939;-80
2021/07/01 08:39:37;;;;;;;2.33;2.13;;;;;;;;;;5018173;28;20441;-78
2021/07/01 08:42:06;;;;;;;3.83;2.87;;;;;;;;;;5017035;28;20927;-79
2021/07/01 08:44:41;;;;;;;4.13;2.43;;;;;;;;;;5019292;28;20445;-79
2021/07/01 08:47:16;;;;;;;3.40;2.50;;;;;;;;;;5017089;28;20512;-79
2021/07/01 08:49:58;;;;;;;2.40;2.20;;;;;;;;;;5018008;28;20774;-79
2021/07/01 08:52:26;;;;;;;2.40;2.20;;;;;;;;;;5015803;28;20502;-80
2021/07/01 08:55:06;;;;;;;2.13;1.93;;;;;;;;;;5014954;28;20467;-78
2021/07/01 08:57:36;;;;;;;2.90;2.70;;;;;;;;;;5015977;28;20465;-80
2021/07/01 09:00:20;;;;;;;2.67;2.47;;;;;;;;;;5039259;28;20424;-78
2021/07/01 09:03:04;;;;;;;3.07;2.40;;;;;;;;;;5018380;28;20598;-76
2021/07/01 09:05:32;;;;;;;2.77;2.57;;;;;;;;;;5011540;28;20977;-80
2021/07/01 09:07:59;;;;;;;2.60;2.40;;;;;;;;;;5013984;28;20504;-79
2021/07/01 09:10:27;;;;;;;2.73;2.53;;;;;;;;;;5013617;28;20498;-78
2021/07/01 09:12:57;;;;;;;2.60;2.40;;;;;;;;;;5012681;28;20417;-77
2021/07/01 09:15:24;;;;;;;3.03;2.73;;;;;;;;;;5010881;28;20495;-78
2021/07/01 09:17:52;;;;;;;3.63;2.63;;;;;;;;;;5030100;28;20489;-81
2021/07/01 09:20:20;;;;;;;3.57;2.33;;;;;;;;;;5028639;28;20436;-79
2021/07/01 09:22:47;;;;;;;3.00;2.70;;;;;;;;;;5011448;28;20420;-77
2021/07/01 09:25:14;;;;;;;4.10;2.40;;;;;;;;;;5011778;28;20428;-75
2021/07/01 09:27:45;;;;;;;2.33;2.13;;;;;;;;;;5026653;28;20429;-78
2021/07/01 09:30:12;;;;;;;2.37;2.13;;;;;;;;;;5017506;28;20428;-81
2021/07/01 09:32:38;;;;;;;2.50;2.30;;;;;;;;;;5017823;28;20439;-80
2021/07/01 09:35:04;;;;;;;3.40;2.30;;;;;;;;;;5019550;28;20491;-80
2021/07/01 09:37:46;;;;;;;2.53;2.33;;;;;;;;;;5013426;28;20514;-82
2021/07/01 09:40:14;;;;;;;3.00;2.70;;;;;;;;;;5018415;28;20432;-78
2021/07/01 09:42:40;;;;;;;2.63;2.33;;;;;;;;;;5032559;28;20498;-78
2021/07/01 09:45:14;;;;;;;4.60;2.30;;;;;;;;;;5037096;28;20424;-80
2021/07/01 09:47:43;;;;;;;2.23;2.13;;;;;;;;;;5022103;28;20427;-81
2021/07/01 09:50:10;;;;;;;2.03;1.90;;;;;;;;;;5051593;28;20973;-79
2021/07/01 09:52:42;;;;;;;4.40;2.60;;;;;;;;;;5041124;28;20452;-81
2021/07/01 09:55:09;;;;;;;5.60;2.40;;;;;;;;;;5020030;28;20507;-82
2021/07/01 09:57:37;;;;;;;3.07;2.77;;;;;;;;;;5019419;28;20443;-79
2021/07/01 10:00:23;;;;;;;2.57;2.37;;;;;;;;;;5019800;28;20520;-82
2021/07/01 10:03:01;;;;;;;3.20;2.73;;;;;;;;;;5024246;28;20534;-81
2021/07/01 10:05:28;;;;;;;3.40;3.10;;;;;;;;;;5042400;28;20786;-82
2021/07/01 10:07:55;;;;;;;2.70;2.50;;;;;;;;;;5024593;28;20531;-82
2021/07/01 10:10:22;;;;;;;2.97;2.67;;;;;;;;;;5021816;28;20432;-83
2021/07/01 10:12:50;;;;;;;2.73;2.40;;;;;;;;;;5025276;28;20858;-81
2021/07/01 10:15:33;;;;;;;4.00;2.27;;;;;;;;;;5019451;28;20483;-80
2021/07/01 10:18:02;;;;;;;2.97;2.47;;;;;;;;;;5016373;28;20416;-79
2021/07/01 10:20:32;;;;;;;1.83;1.70;;;;;;;;;;5022472;28;20498;-80
2021/07/01 10:22:59;;;;;;;3.17;2.70;;;;;;;;;;5022001;28;20464;-77
2021/07/01 10:25:32;;;;;;;1.80;1.70;;;;;;;;;;5022055;28;20440;-83
2021/07/01 10:28:09;;;;;;;1.83;1.73;;;;;;;;;;5036983;28;20852;-81
2021/07/01 10:30:34;;;;;;;2.80;2.10;;;;;;;;;;5034497;28;20436;-83
2021/07/01 10:33:01;;;;;;;2.17;2.00;;;;;;;;;;5025283;28;20432;-81
2021/07/01 10:35:34;;;;;;;3.10;1.90;;;;;;;;;;5024651;28;20499;-79
2021/07/01 10:38:08;;;;;;;2.10;2.00;;;;;;;;;;5015743;28;20451;-80
2021/07/01 10:40:36;;;;;;;1.83;1.73;;;;;;;;;;5015035;28;20790;-79
2021/07/01 10:43:03;;;;;;;2.27;1.97;;;;;;;;;;5017459;28;20427;-80
2021/07/01 10:45:29;;;;;;;1.63;1.53;;;;;;;;;;5020274;28;20432;-77
2021/07/01 10:48:10;;;;;;;2.40;2.20;;;;;;;;;;5016265;28;20798;-78
2021/07/01 10:50:36;;;;;;;2.17;2.07;;;;;;;;;;5031540;28;20436;-79
2021/07/01 10:53:02;;;;;;;3.47;1.50;;;;;;;;;;5016880;28;20432;-77
2021/07/01 10:55:39;;;;;;;2.47;1.83;;;;;;;;;;5033264;28;20530;-78
2021/07/01 10:58:06;;;;;;;1.40;1.30;;;;;;;;;;5017403;28;20428;-78
2021/07/01 11:00:46;;;;;;;1.77;1.67;;;;;;;;;;5018780;28;20973;-79
2021/07/01 11:03:19;;;;;;;1.83;1.40;;;;;;;;;;5014874;28;20453;-77
2021/07/01 11:05:45;;;;;;;1.93;1.57;;;;;;;;;;5012855;28;20428;-79
2021/07/01 11:08:22;;;;;;;2.20;1.40;;;;;;;;;;5029942;28;20546;-82
2021/07/01 11:10:49;;;;;;;1.60;1.50;;;;;;;;;;5016888;28;20451;-78
2021/07/01 11:13:15;;;;;;;2.00;1.80;;;;;;;;;;5020905;28;20451;-77
2021/07/01 11:16:00;;;;;;;1.00;1.00;;;;;;;;;;5022057;28;20471;-78
2021/07/01 11:18:36;;;;;;;1.80;1.43;;;;;;;;;;5016919;28;20439;-76
2021/07/01 11:21:05;;;;;;;1.90;1.47;;;;;;;;;;5015028;28;20870;-79
2021/07/01 11:23:31;;;;;;;1.73;1.63;;;;;;;;;;5012998;28;20510;-80
2021/07/01 11:25:57;;;;;;;1.87;1.77;;;;;;;;;;5019099;28;20451;-77
2021/07/01 11:28:29;;;;;;;1.63;1.53;;;;;;;;;;5017587;28;20474;-80
2021/07/01 11:31:00;;;;;;;1.60;1.50;;;;;;;;;;5012686;28;20432;-77
2021/07/01 11:33:28;;;;;;;2.10;1.90;;;;;;;;;;5013501;28;20429;-79
2021/07/01 11:36:09;;;;;;;1.63;1.50;;;;;;;;;;5012374;28;20846;-80
2021/07/01 11:38:35;;;;;;;1.37;1.27;;;;;;;;;;5015738;28;20416;-80
2021/07/01 11:41:04;;;;;;;1.30;1.20;;;;;;;;;;5017476;28;21021;-80
2021/07/01 11:43:30;;;;;;;1.77;1.57;;;;;;;;;;5018129;28;20442;-77
2021/07/01 11:45:57;;;;;;;1.50;1.40;;;;;;;;;;5017479;28;20543;-82
2021/07/01 11:48:24;;;;;;;2.07;1.93;;;;;;;;;;5012890;28;20435;-80
2021/07/01 11:50:51;;;;;;;4.37;3.80;;;;;;;;;;5027672;28;20528;-80
2021/07/01 11:53:18;;;;;;;2.50;2.30;;;;;;;;;;5012714;28;20548;-81
2021/07/01 11:55:45;;;;;;;1.87;1.70;;;;;;;;;;5018756;28;20488;-81
2021/07/01 11:58:12;;;;;;;2.13;1.93;;;;;;;;;;5020148;28;21454;-80
2021/07/01 12:00:38;;;;;;;1.70;1.60;;;;;;;;;;5020173;28;20537;-80
2021/07/01 12:03:05;;;;;;;2.23;2.03;;;;;;;;;;5022687;28;20430;-80
2021/07/01 12:05:32;;;;;;;3.53;1.87;;;;;;;;;;5015932;28;20440;-79
2021/07/01 12:07:58;;;;;;;1.90;1.80;;;;;;;;;;5017501;28;20838;-80
2021/07/01 12:10:25;;;;;;;1.83;1.73;;;;;;;;;;5014765;28;20998;-78
2021/07/01 12:12:51;;;;;;;1.90;1.80;;;;;;;;;;5018497;28;20979;-78
2021/07/01 12:15:17;;;;;;;2.00;1.40;;;;;;;;;;5011767;28;20511;-79
2021/07/01 12:17:51;;;;;;;1.40;1.30;;;;;;;;;;5014555;28;20444;-80
2021/07/01 12:20:36;;;;;;;1.30;1.20;;;;;;;;;;5029118;28;20942;-79
2021/07/01 12:23:16;;;;;;;1.47;1.37;;;;;;;;;;5032915;28;20533;-81
2021/07/01 12:25:43;;;;;;;1.67;1.50;;;;;;;;;;5031422;28;20432;-78
2021/07/01 12:28:11;;;;;;;1.70;1.40;;;;;;;;;;5017333;28;20436;-79
2021/07/01 12:30:52;;;;;;;1.60;1.50;;;;;;;;;;5009774;28;20434;-79
2021/07/01 12:33:35;;;;;;;2.23;2.03;;;;;;;;;;5043168;28;20527;-75
2021/07/01 12:36:04;;;;;;;2.47;1.90;;;;;;;;;;5015107;28;20504;-81
2021/07/01 12:38:30;;;;;;;3.80;2.63;;;;;;;;;;5011950;28;20524;-80
2021/07/01 12:40:56;;;;;;;2.90;2.57;;;;;;;;;;5025016;28;20452;-80
2021/07/01 12:43:41;;;;;;;3.20;2.90;;;;;;;;;;5017442;28;20432;-80
2021/07/01 12:46:08;;;;;;;4.30;2.87;;;;;;;;;;5012710;28;20951;-78
2021/07/01 12:48:41;;;;;;;3.53;3.20;;;;;;;;;;5018347;28;20494;-80
2021/07/01 12:51:30;;;;;;;3.30;2.23;;;;;;;;;;5014411;28;20532;-81
2021/07/01 12:53:56;;;;;;;3.37;2.27;;;;;;;;;;5000548;28;20440;-79
2021/07/01 12:56:38;;;;;;;2.67;2.43;;;;;;;;;;5012726;28;20476;-76
2021/07/01 12:59:04;;;;;;;2.03;1.90;;;;;;;;;;5030418;28;20440;-77
2021/07/01 13:01:30;;;;;;;2.47;2.00;;;;;;;;;;5008589;28;20440;-78
2021/07/01 13:03:57;;;;;;;3.60;2.57;;;;;;;;;;5008502;28;20808;-78
2021/07/01 13:06:25;;;;;;;3.57;2.57;;;;;;;;;;5012807;28;20454;-77
2021/07/01 13:08:51;;;;;;;3.80;2.57;;;;;;;;;;5014877;28;20417;-77
2021/07/01 13:11:17;;;;;;;3.70;2.40;;;;;;;;;;5012187;28;20429;-76
2021/07/01 13:13:44;;;;;;;2.70;2.50;;;;;;;;;;5030605;28;20456;-79
2021/07/01 13:16:10;;;;;;;2.67;2.47;;;;;;;;;;5015742;28;20541;-78
2021/07/01 13:18:36;;;;;;;2.80;2.60;;;;;;;;;;5017443;28;20467;-82
2021/07/01 13:21:12;;;;;;;2.77;2.40;;;;;;;;;;5018635;28;20452;-75
2021/07/01 13:23:38;;;;;;;3.10;2.80;;;;;;;;;;5019376;28;20933;-75
2021/07/01 13:26:11;;;;;;;2.70;2.50;;;;;;;;;;5017700;28;20796;-73
2021/07/01 13:28:37;;;;;;;3.03;2.73;;;;;;;;;;5012215;28;20452;-74
2021/07/01 13:31:03;;;;;;;3.73;3.37;;;;;;;;;;5010628;28;20472;-74
2021/07/01 13:33:29;;;;;;;3.33;2.83;;;;;;;;;;5014859;28;20478;-75
2021/07/01 13:35:55;;;;;;;3.90;3.27;;;;;;;;;;5010428;28;20488;-75
2021/07/01 13:38:24;;;;;;;3.80;3.10;;;;;;;;;;5034353;28;20463;-76
2021/07/01 13:40:51;;;;;;;3.63;3.03;;;;;;;;;;5015142;28;20448;-74
2021/07/01 13:43:19;;;;;;;4.43;3.60;;;;;;;;;;5024653;28;20510;-76
2021/07/01 13:45:46;;;;;;;3.23;2.93;;;;;;;;;;5025854;28;20530;-76
2021/07/01 13:48:18;;;;;;;3.23;2.93;;;;;;;;;;5021946;28;20525;-73
2021/07/01 13:50:45;;;;;;;3.80;2.47;;;;;;;;;;5022579;28;20494;-75
2021/07/01 13:53:16;;;;;;;4.13;3.10;;;;;;;;;;5019351;28;20524;-76
2021/07/01 13:55:43;;;;;;;4.57;3.57;;;;;;;;;;5020714;28;20521;-76
2021/07/01 13:58:10;;;;;;;3.00;2.80;;;;;;;;;;5025701;28;20816;-76
2021/07/01 14:00:37;;;;;;;4.17;3.40;;;;;;;;;;5026294;28;20930;-75
2021/07/01 14:03:08;;;;;;;3.83;2.90;;;;;;;;;;5019853;28;20420;-73
2021/07/01 14:05:38;;;;;;;5.10;3.17;;;;;;;;;;5020718;28;20443;-74
2021/07/01 14:08:05;;;;;;;4.13;3.30;;;;;;;;;;5031891;28;20927;-89
2021/07/01 14:10:32;;;;;;;4.30;3.77;;;;;;;;;;5017687;28;20590;-85
2021/07/01 14:12:58;;;;;;;3.30;3.00;;;;;;;;;;5022664;28;20500;-78
2021/07/01 14:15:25;;;;;;;3.10;2.80;;;;;;;;;;5015766;28;20475;-80
2021/07/01 14:17:51;;;;;;;3.47;3.17;;;;;;;;;;5018056;28;20458;-75
2021/07/01 14:20:18;;;;;;;4.57;4.17;;;;;;;;;;5021720;28;20528;-74
2021/07/01 14:22:44;;;;;;;4.20;3.60;;;;;;;;;;5014702;28;20485;-75
2021/07/01 14:25:26;;;;;;;6.80;3.90;;;;;;;;;;5014902;28;20443;-76
2021/07/01 14:28:06;;;;;;;4.87;3.57;;;;;;;;;;5015367;28;20435;-76
2021/07/01 14:30:39;;;;;;;7.03;3.47;;;;;;;;;;5013401;28;20520;-76
2021/07/01 14:33:24;;;;;;;4.23;3.83;;;;;;;;;;5018701;28;20447;-77
2021/07/01 14:36:03;;;;;;;3.80;3.40;;;;;;;;;;5046330;28;20489;-72
2021/07/01 14:38:33;;;;;;;4.60;4.20;;;;;;;;;;5035655;28;20479;-74
2021/07/01 14:41:03;;;;;;;3.83;3.43;;;;;;;;;;5043958;28;20451;-72
2021/07/01 14:43:50;;;;;;;5.23;3.90;;;;;;;;;;5014861;28;20427;-75
2021/07/01 14:46:18;;;;;;;4.43;3.30;;;;;;;;;;5005302;28;20803;-73
2021/07/01 14:48:44;;;;;;;4.40;3.90;;;;;;;;;;5014175;28;20425;-74